Offutt Air Force Base
KOFF : rendu visible

Aérodrome :











RETROUVEZ-NOUS SUR...

 
LOGIN :

S'inscrire | Disclaimer

   EN    FR    IT 

 









Légende :    VFR   VFR Marginal   IFR   IFR Intensif   IFR Très Intensif
Visi : 
Plafond : 
>= 8 km
>= 3000ft
5 à 8 km
1000 à 3000 ft
1500m à 5 km
500 à 1000 ft
800 à 1500m
200 à 500 ft
< 800m
< 200 ft
Symboles :   Orages  Brouillard  Fortes neiges  Fortes précipitations  Vent > 20 kt






- Altitude de l'aérodrome : 1052 ft


KOFF - Offutt Air Force Base

DERNIER METAR :
  • 230156Z 14005KT 2 1/2SM -DZ BR OVC002 01/00 A2987 RMK AO2A TWR VIS 1 SLP129 P0001 RVRNO $

METARs EXPIRÉS :
  • 230056Z 14006KT 2SM -DZ BR OVC002 01/00 A2986 RMK AO2A TWR VIS 1 SLP126 P0001 RVRNO $
  • 222356Z 13007KT 2SM -DZ BR OVC002 01/00 A2985 RMK AO2A TWR VIS 1 SLP122 60013 4/001 RVRNO $

TAF TAF KOFF
Valide du 23 à 02h jusqu'au 24 à 08h UTC


230200Z 2302/2408 14006KT 3200 -DZ BR OVC002 620029 QNH2984INS
BECMG 2305/2306 VRB05KT 1600 -DZ BR OVC002 620029 QNH2987INS
BECMG 2311/2312 34007KT 1600 -SN BR OVC004 620049 QNH2990INS
BECMG 2317/2318 35010G15KT 3200 -SN BR OVC007 620079 QNH2993INS
BECMG 2323/2324 34010G15KT 8000 -SN OVC007 620079 QNH2999INS TX01/2320Z TNM02/2402Z



MET'MAP, la Météo Aéronautique d'un coup d'oeil ! - Copyright ORBIFLY Décembre 2007 - Disclaimer

ORBIFLY MET'MAP TEAM :

Programmation & Développement : Alexandra Zaïnal
Sur une idée originale de : Baudouin d'Aumeries
Assistance à la programmation : Marc-Olivier Méhu
Soutien technique & logistique : Manuel Goepfert

Contact : metmap@orbifly.com




SOURCES & CREDITS :

   NOAA       Earth
Advisory